createdAt,value
2023-01-11T00:04:00.429Z,15.80
2023-01-11T00:09:03.942Z,15.80
2023-01-11T00:14:08.813Z,15.80
2023-01-11T00:19:12.328Z,15.80
2023-01-11T00:24:15.820Z,15.70
2023-01-11T00:29:20.719Z,15.70
2023-01-11T00:34:24.346Z,15.80
2023-01-11T00:39:27.775Z,15.70
2023-01-11T00:44:49.959Z,15.70
2023-01-11T00:49:53.370Z,15.70
2023-01-11T00:54:56.891Z,15.70
2023-01-11T01:00:02.228Z,15.80
2023-01-11T01:05:06.134Z,15.70
2023-01-11T01:10:11.085Z,15.70
2023-01-11T01:15:16.347Z,15.80
2023-01-11T01:20:21.034Z,15.70
2023-01-11T01:25:24.496Z,15.80
2023-01-11T01:30:29.372Z,15.80
2023-01-11T01:35:32.789Z,15.80
2023-01-11T01:40:42.778Z,15.80
2023-01-11T01:45:50.201Z,15.70
2023-01-11T01:50:55.202Z,15.80
2023-01-11T01:56:00.450Z,15.70
2023-01-11T02:01:19.314Z,15.80
2023-01-11T02:06:24.044Z,15.80
2023-01-11T02:11:33.889Z,15.80
2023-01-11T02:16:38.801Z,15.70
2023-01-11T02:21:54.148Z,15.70
2023-01-11T02:27:18.195Z,15.70
2023-01-11T02:32:28.476Z,15.70
2023-01-11T02:37:40.079Z,15.80
2023-01-11T02:43:09.995Z,15.70
2023-01-11T02:48:20.784Z,15.80
2023-01-11T02:53:27.648Z,15.80
2023-01-11T02:58:35.185Z,15.80
2023-01-11T03:03:40.048Z,15.70
2023-01-11T03:09:13.899Z,15.80
2023-01-11T03:14:22.360Z,15.80
2023-01-11T03:19:36.316Z,15.80
2023-01-11T03:24:43.181Z,15.70
2023-01-11T03:29:50.685Z,15.70
2023-01-11T03:35:03.335Z,15.70
2023-01-11T03:40:10.562Z,15.70
2023-01-11T03:45:14.135Z,15.70
2023-01-11T03:50:19.959Z,15.70
2023-01-11T03:55:26.799Z,15.60
2023-01-11T04:00:32.324Z,15.70
2023-01-11T04:05:38.289Z,15.70
2023-01-11T04:10:41.810Z,15.70
2023-01-11T04:15:45.329Z,15.70
2023-01-11T04:20:50.132Z,15.70
2023-01-11T04:25:53.731Z,15.70
2023-01-11T04:30:57.050Z,15.70
2023-01-11T04:36:06.077Z,15.70
2023-01-11T04:41:26.965Z,15.60
2023-01-11T04:46:30.434Z,15.60
2023-01-11T04:51:35.302Z,15.70
2023-01-11T04:56:38.784Z,15.70
2023-01-11T05:01:42.233Z,15.80
2023-01-11T05:06:47.343Z,15.80
2023-01-11T05:11:50.909Z,15.80
2023-01-11T05:16:54.361Z,15.90
2023-01-11T05:21:59.249Z,15.80
2023-01-11T05:27:02.667Z,15.70
2023-01-11T05:32:06.743Z,15.70
2023-01-11T05:37:11.659Z,15.80
2023-01-11T05:42:15.135Z,15.70
2023-01-11T05:47:18.618Z,15.70
2023-01-11T05:52:23.533Z,15.70
2023-01-11T05:57:26.980Z,15.80
2023-01-11T06:02:30.597Z,15.80
2023-01-11T06:07:35.515Z,15.70
2023-01-11T06:12:39.011Z,15.70
2023-01-11T06:17:42.476Z,15.80
2023-01-11T06:22:47.387Z,15.70
2023-01-11T06:27:50.823Z,15.70
2023-01-11T06:32:54.310Z,15.80
2023-01-11T06:37:59.116Z,15.70
2023-01-11T06:43:02.854Z,15.80
2023-01-11T06:48:06.760Z,15.70
2023-01-11T06:53:11.519Z,15.70
2023-01-11T06:58:14.909Z,15.80
2023-01-11T07:03:18.380Z,15.70
2023-01-11T07:08:23.184Z,15.80
2023-01-11T07:13:26.569Z,15.80
2023-01-11T07:18:31.823Z,15.80
2023-01-11T07:23:36.795Z,15.80
2023-01-11T07:28:40.228Z,15.80
2023-01-11T07:33:43.666Z,15.80
2023-01-11T07:38:48.727Z,15.80
2023-01-11T07:43:52.127Z,15.70
2023-01-11T07:48:55.603Z,15.80
2023-01-11T07:54:02.884Z,15.80
2023-01-11T07:59:06.326Z,15.70
2023-01-11T08:04:12.849Z,15.70
2023-01-11T08:09:17.775Z,15.60
2023-01-11T08:14:38.964Z,15.60
2023-01-11T08:19:42.573Z,15.60
2023-01-11T08:24:47.582Z,15.70
2023-01-11T08:29:51.066Z,15.70
2023-01-11T08:34:54.964Z,15.60
2023-01-11T08:39:59.925Z,15.70
2023-01-11T08:45:03.423Z,15.60
2023-01-11T08:50:08.432Z,15.70
2023-01-11T08:55:13.265Z,15.60
2023-01-11T09:00:17.418Z,15.80
2023-01-11T09:05:21.030Z,15.70
2023-01-11T09:10:27.344Z,15.70
2023-01-11T09:15:31.175Z,15.70
2023-01-11T09:20:34.555Z,15.80
2023-01-11T09:25:39.352Z,15.70
2023-01-11T09:30:42.776Z,15.60
2023-01-11T09:35:47.248Z,15.60
2023-01-11T09:40:57.327Z,15.60
2023-01-11T09:46:08.643Z,15.80
2023-01-11T09:51:16.082Z,15.90
2023-01-11T09:56:25.605Z,15.90
2023-01-11T10:01:34.297Z,16.00
2023-01-11T10:06:46.734Z,16.00
2023-01-11T10:18:38.446Z,16.00
2023-01-11T10:23:06.536Z,16.00
2023-01-11T10:28:20.268Z,16.00
2023-01-11T10:33:45.500Z,16.10
2023-01-11T10:39:13.617Z,16.10
2023-01-11T10:44:26.873Z,16.10
2023-01-11T10:49:36.405Z,16.20
2023-01-11T10:54:46.817Z,16.20
2023-01-11T11:00:04.672Z,16.30
2023-01-11T11:05:17.277Z,16.20
2023-01-11T11:10:24.504Z,16.30
2023-01-11T11:15:34.710Z,16.30
2023-01-11T11:20:38.159Z,16.30
2023-01-11T11:25:43.506Z,16.30
2023-01-11T11:30:48.923Z,16.40
2023-01-11T11:35:57.989Z,16.40
2023-01-11T11:41:07.489Z,16.50
2023-01-11T11:46:24.580Z,16.40
2023-01-11T11:51:28.179Z,16.40
2023-01-11T11:56:33.013Z,16.50
2023-01-11T12:01:40.069Z,16.60
2023-01-11T12:06:43.609Z,16.50
2023-01-11T12:11:48.497Z,16.50
2023-01-11T12:16:53.452Z,16.60
2023-01-11T12:22:11.803Z,16.60
2023-01-11T12:27:29.558Z,16.70
2023-01-11T12:32:53.584Z,16.70
2023-01-11T12:38:08.109Z,16.70
2023-01-11T12:43:27.574Z,16.70
2023-01-11T12:48:43.624Z,16.70
2023-01-11T12:53:57.064Z,16.70
2023-01-11T12:59:04.772Z,16.70
2023-01-11T13:04:46.797Z,16.70
2023-01-11T13:10:00.966Z,16.80
2023-01-11T13:15:22.586Z,16.80
2023-01-11T13:20:48.681Z,16.80
2023-01-11T13:25:57.517Z,16.70
2023-01-11T13:31:01.648Z,16.70
2023-01-11T13:36:21.827Z,16.70
2023-01-11T13:41:29.190Z,16.70
2023-01-11T13:46:46.155Z,16.70
2023-01-11T13:51:54.432Z,16.70
2023-01-11T13:57:02.032Z,16.70
2023-01-11T14:02:12.500Z,16.70
2023-01-11T14:07:26.506Z,16.70
2023-01-11T14:12:39.237Z,16.60
2023-01-11T14:18:05.998Z,16.70
2023-01-11T14:23:13.750Z,16.70
2023-01-11T14:28:34.403Z,16.70
2023-01-11T14:34:04.115Z,16.70
2023-01-11T14:39:57.988Z,16.70
2023-01-11T14:45:26.973Z,16.70
2023-01-11T14:50:41.168Z,16.70
2023-01-11T14:55:46.652Z,16.70
2023-01-11T15:01:11.851Z,16.60
2023-01-11T15:06:17.020Z,16.70
2023-01-11T15:11:26.821Z,16.70
2023-01-11T15:16:49.877Z,16.70
2023-01-11T15:21:55.950Z,16.60
2023-01-11T15:27:00.888Z,16.50
2023-01-11T15:32:18.229Z,16.60
2023-01-11T15:37:50.155Z,16.60
2023-01-11T15:43:32.979Z,16.60
2023-01-11T15:48:50.055Z,16.60
2023-01-11T15:54:27.133Z,16.70
2023-01-11T16:00:00.404Z,16.60
2023-01-11T16:05:16.314Z,16.60
2023-01-11T16:10:34.398Z,16.60
2023-01-11T16:15:48.151Z,16.60
2023-01-11T16:21:01.246Z,16.50
2023-01-11T16:26:05.535Z,16.50
2023-01-11T16:31:09.378Z,16.50
2023-01-11T16:36:15.891Z,16.60
2023-01-11T16:41:19.347Z,16.60
2023-01-11T16:47:15.865Z,16.60
2023-01-11T16:52:38.936Z,16.60
2023-01-11T16:57:46.381Z,16.50
2023-01-11T17:02:51.583Z,16.60
2023-01-11T17:07:56.418Z,16.50
2023-01-11T17:13:36.225Z,16.60
2023-01-11T17:18:41.355Z,16.50
2023-01-11T17:23:47.016Z,16.60
2023-01-11T17:28:51.808Z,16.50
2023-01-11T17:34:03.274Z,16.50
2023-01-11T17:39:08.346Z,16.50
2023-01-11T17:44:34.365Z,16.50
2023-01-11T17:49:38.456Z,16.60
2023-01-11T17:54:43.451Z,16.50
2023-01-11T17:59:46.999Z,16.60
2023-01-11T18:04:59.652Z,16.50
2023-01-11T18:10:04.730Z,16.50
2023-01-11T18:15:09.368Z,16.40
2023-01-11T18:20:34.798Z,16.50
2023-01-11T18:25:40.699Z,16.50
2023-01-11T18:30:46.821Z,16.50
2023-01-11T18:35:51.936Z,16.50
2023-01-11T18:40:58.728Z,16.40
2023-01-11T18:46:02.224Z,16.50
2023-01-11T18:51:05.775Z,16.50
2023-01-11T18:56:10.712Z,16.50
2023-01-11T19:01:14.292Z,16.50
2023-01-11T19:06:21.343Z,16.50
2023-01-11T19:11:29.085Z,16.40
2023-01-11T19:16:32.550Z,16.40
2023-01-11T19:21:36.031Z,16.40
2023-01-11T19:26:40.993Z,16.40
2023-01-11T19:31:45.175Z,16.50
2023-01-11T19:36:49.874Z,16.40
2023-01-11T19:42:02.472Z,16.40
2023-01-11T19:47:12.107Z,16.40
2023-01-11T19:52:19.403Z,16.40
2023-01-11T19:57:24.391Z,16.40
2023-01-11T20:02:27.966Z,16.40
2023-01-11T20:07:31.459Z,16.30
2023-01-11T20:12:36.394Z,16.50
2023-01-11T20:17:39.887Z,16.50
2023-01-11T20:22:45.071Z,16.50
2023-01-11T20:27:49.968Z,16.50
2023-01-11T20:32:53.559Z,16.50
2023-01-11T20:37:57.037Z,16.40
2023-01-11T20:43:01.951Z,16.50
2023-01-11T20:48:05.579Z,16.50
2023-01-11T20:53:09.067Z,16.50
2023-01-11T20:58:14.540Z,16.40
2023-01-11T21:03:20.229Z,16.40
2023-01-11T21:08:23.724Z,16.40
2023-01-11T21:13:28.607Z,16.40
2023-01-11T21:18:32.052Z,16.50
2023-01-11T21:23:35.539Z,16.50
2023-01-11T21:28:40.622Z,16.50
2023-01-11T21:33:44.097Z,16.50
2023-01-11T21:38:47.867Z,16.50
2023-01-11T21:43:53.234Z,16.50
2023-01-11T21:48:56.723Z,16.50
2023-01-11T21:54:00.874Z,16.40
2023-01-11T21:59:05.811Z,16.40
2023-01-11T22:04:09.889Z,16.50
2023-01-11T22:09:13.489Z,16.40
2023-01-11T22:14:18.461Z,16.40
2023-01-11T22:19:21.925Z,16.40
2023-01-11T22:24:25.610Z,16.40
2023-01-11T22:29:30.430Z,16.40
2023-01-11T22:34:34.768Z,16.40
2023-01-11T22:39:38.286Z,16.40
2023-01-11T22:44:43.044Z,16.40
2023-01-11T22:49:46.528Z,16.30
2023-01-11T22:54:50.047Z,16.40
2023-01-11T22:59:54.937Z,16.40
2023-01-11T23:04:58.471Z,16.30
2023-01-11T23:10:01.948Z,16.30
2023-01-11T23:15:07.753Z,16.40
2023-01-11T23:20:12.951Z,16.30
2023-01-11T23:25:16.591Z,16.30
2023-01-11T23:30:21.764Z,16.40
2023-01-11T23:35:25.252Z,16.30
2023-01-11T23:40:28.749Z,16.30
2023-01-11T23:45:33.653Z,16.40
2023-01-11T23:50:37.191Z,16.30
2023-01-11T23:55:40.654Z,16.40
